sensor_id;sensor_type;location;lat;lon;timestamp;pressure;altitude;pressure_sealevel;temperature;humidity
37132;BME280;23035;50.032;21.978;2023-07-09T00:04:39;67124.69;;;18.54;100.00
37132;BME280;23035;50.032;21.978;2023-07-09T00:09:43;67107.81;;;18.33;100.00
37132;BME280;23035;50.032;21.978;2023-07-09T00:14:48;67060.34;;;17.89;100.00
37132;BME280;23035;50.032;21.978;2023-07-09T00:19:53;67075.47;;;18.03;100.00
37132;BME280;23035;50.032;21.978;2023-07-09T00:24:57;67080.94;;;18.11;100.00
37132;BME280;23035;50.032;21.978;2023-07-09T00:30:02;67069.66;;;18.02;100.00
37132;BME280;23035;50.032;21.978;2023-07-09T00:35:07;67034.41;;;17.62;100.00
37132;BME280;23035;50.032;21.978;2023-07-09T00:40:15;67002.66;;;17.34;100.00
37132;BME280;23035;50.032;21.978;2023-07-09T00:45:24;67008.56;;;17.40;100.00
37132;BME280;23035;50.032;21.978;2023-07-09T00:50:34;67036.69;;;17.69;100.00
37132;BME280;23035;50.032;21.978;2023-07-09T00:55:41;66970.31;;;17.04;100.00
37132;BME280;23035;50.032;21.978;2023-07-09T01:00:51;67009.66;;;17.41;100.00
37132;BME280;23035;50.032;21.978;2023-07-09T01:05:57;67010.88;;;17.47;100.00
37132;BME280;23035;50.032;21.978;2023-07-09T01:11:05;66974.06;;;17.07;100.00
37132;BME280;23035;50.032;21.978;2023-07-09T01:16:12;66957.97;;;16.95;100.00
37132;BME280;23035;50.032;21.978;2023-07-09T01:21:19;66978.53;;;17.16;100.00
37132;BME280;23035;50.032;21.978;2023-07-09T01:26:25;66993.53;;;17.28;100.00
37132;BME280;23035;50.032;21.978;2023-07-09T01:31:29;66954.13;;;16.88;100.00
37132;BME280;23035;50.032;21.978;2023-07-09T01:36:36;67001.56;;;17.33;100.00
37132;BME280;23035;50.032;21.978;2023-07-09T01:41:42;66975.22;;;17.11;100.00
37132;BME280;23035;50.032;21.978;2023-07-09T01:46:48;66975.31;;;17.13;100.00
37132;BME280;23035;50.032;21.978;2023-07-09T01:51:54;66916.41;;;16.53;100.00
37132;BME280;23035;50.032;21.978;2023-07-09T01:57:13;66906.16;;;16.43;100.00
37132;BME280;23035;50.032;21.978;2023-07-09T02:02:17;66907.84;;;16.47;100.00
37132;BME280;23035;50.032;21.978;2023-07-09T02:07:25;66944.97;;;16.80;100.00
37132;BME280;23035;50.032;21.978;2023-07-09T02:12:30;66881.91;;;16.20;100.00
37132;BME280;23035;50.032;21.978;2023-07-09T02:17:34;66908.84;;;16.46;100.00
37132;BME280;23035;50.032;21.978;2023-07-09T02:22:40;66919.75;;;16.61;100.00
37132;BME280;23035;50.032;21.978;2023-07-09T02:27:44;66880.28;;;16.19;100.00
37132;BME280;23035;50.032;21.978;2023-07-09T02:32:49;66916.94;;;16.53;100.00
37132;BME280;23035;50.032;21.978;2023-07-09T02:37:54;66920.69;;;16.57;100.00
37132;BME280;23035;50.032;21.978;2023-07-09T02:42:58;66950.91;;;16.85;100.00
37132;BME280;23035;50.032;21.978;2023-07-09T02:48:02;66947.69;;;16.82;100.00
37132;BME280;23035;50.032;21.978;2023-07-09T02:53:14;66947.19;;;16.84;100.00
37132;BME280;23035;50.032;21.978;2023-07-09T02:58:18;66932.63;;;16.71;100.00
37132;BME280;23035;50.032;21.978;2023-07-09T03:03:21;66918.56;;;16.55;100.00
37132;BME280;23035;50.032;21.978;2023-07-09T03:08:27;66962.75;;;16.97;100.00
37132;BME280;23035;50.032;21.978;2023-07-09T03:13:31;66905.63;;;16.43;100.00
37132;BME280;23035;50.032;21.978;2023-07-09T03:18:35;66930.41;;;16.66;100.00
37132;BME280;23035;50.032;21.978;2023-07-09T03:23:41;66853.97;;;15.96;100.00
37132;BME280;23035;50.032;21.978;2023-07-09T03:28:45;66755.84;;;14.99;100.00
37132;BME280;23035;50.032;21.978;2023-07-09T03:33:50;66740.91;;;14.89;100.00
37132;BME280;23035;50.032;21.978;2023-07-09T03:38:55;66878.22;;;16.19;100.00
37132;BME280;23035;50.032;21.978;2023-07-09T03:43:59;66994.50;;;17.24;100.00
37132;BME280;23035;50.032;21.978;2023-07-09T03:49:03;66979.94;;;17.10;100.00
37132;BME280;23035;50.032;21.978;2023-07-09T03:54:09;67116.06;;;18.46;100.00
37132;BME280;23035;50.032;21.978;2023-07-09T03:59:13;67102.97;;;18.29;100.00
37132;BME280;23035;50.032;21.978;2023-07-09T04:04:17;67106.88;;;18.38;100.00
37132;BME280;23035;50.032;21.978;2023-07-09T04:09:24;67086.25;;;18.13;100.00
37132;BME280;23035;50.032;21.978;2023-07-09T04:14:28;67138.66;;;18.65;100.00
37132;BME280;23035;50.032;21.978;2023-07-09T04:19:32;67132.78;;;18.62;100.00
37132;BME280;23035;50.032;21.978;2023-07-09T04:24:38;67172.66;;;18.97;100.00
37132;BME280;23035;50.032;21.978;2023-07-09T04:29:42;67183.94;;;19.05;100.00
37132;BME280;23035;50.032;21.978;2023-07-09T04:34:47;67233.13;;;19.54;96.09
37132;BME280;23035;50.032;21.978;2023-07-09T04:39:52;67287.63;;;20.03;88.23
37132;BME280;23035;50.032;21.978;2023-07-09T04:44:56;67378.47;;;20.91;82.77
37132;BME280;23035;50.032;21.978;2023-07-09T04:50:01;67323.81;;;20.37;85.54
37132;BME280;23035;50.032;21.978;2023-07-09T04:55:07;67380.03;;;20.90;81.50
37132;BME280;23035;50.032;21.978;2023-07-09T05:00:12;67366.03;;;20.79;83.03
37132;BME280;23035;50.032;21.978;2023-07-09T05:05:17;67385.50;;;20.98;83.89
37132;BME280;23035;50.032;21.978;2023-07-09T05:10:22;67334.75;;;20.52;86.33
37132;BME280;23035;50.032;21.978;2023-07-09T05:15:26;67351.47;;;20.66;88.34
37132;BME280;23035;50.032;21.978;2023-07-09T05:20:30;67417.34;;;21.25;82.93
37132;BME280;23035;50.032;21.978;2023-07-09T05:25:35;67468.19;;;21.73;80.19
37132;BME280;23035;50.032;21.978;2023-07-09T05:30:41;67514.16;;;22.16;78.22
37132;BME280;23035;50.032;21.978;2023-07-09T05:35:46;67477.97;;;21.85;80.66
37132;BME280;23035;50.032;21.978;2023-07-09T05:40:59;67494.25;;;22.02;79.93
37132;BME280;23035;50.032;21.978;2023-07-09T05:46:05;67521.22;;;22.23;78.25
37132;BME280;23035;50.032;21.978;2023-07-09T05:51:09;67560.28;;;22.65;76.59
37132;BME280;23035;50.032;21.978;2023-07-09T05:56:17;67695.63;;;23.92;68.76
37132;BME280;23035;50.032;21.978;2023-07-09T06:01:21;67641.34;;;23.36;68.29
37132;BME280;23035;50.032;21.978;2023-07-09T06:06:25;67670.66;;;23.66;69.27
37132;BME280;23035;50.032;21.978;2023-07-09T06:11:31;67606.81;;;23.08;69.28
37132;BME280;23035;50.032;21.978;2023-07-09T06:16:36;67703.09;;;23.94;68.23
37132;BME280;23035;50.032;21.978;2023-07-09T06:21:40;67714.47;;;24.04;57.58
37132;BME280;23035;50.032;21.978;2023-07-09T06:26:46;67689.56;;;23.81;59.48
37132;BME280;23035;50.032;21.978;2023-07-09T06:31:50;67783.88;;;24.72;54.60
37132;BME280;23035;50.032;21.978;2023-07-09T06:36:56;67784.47;;;24.75;48.14
37132;BME280;23035;50.032;21.978;2023-07-09T06:42:01;67645.78;;;23.45;52.44
37132;BME280;23035;50.032;21.978;2023-07-09T06:47:23;67598.59;;;22.96;56.75
37132;BME280;23035;50.032;21.978;2023-07-09T06:52:28;67632.16;;;23.27;55.52
37132;BME280;23035;50.032;21.978;2023-07-09T06:57:35;67627.28;;;23.23;58.86
37132;BME280;23035;50.032;21.978;2023-07-09T07:02:38;67685.28;;;23.80;57.92
37132;BME280;23035;50.032;21.978;2023-07-09T07:07:42;67781.22;;;24.72;53.15
37132;BME280;23035;50.032;21.978;2023-07-09T07:12:48;67689.56;;;23.81;51.93
37132;BME280;23035;50.032;21.978;2023-07-09T07:17:52;67691.28;;;23.88;52.39
37132;BME280;23035;50.032;21.978;2023-07-09T07:22:57;67726.44;;;24.18;53.87
37132;BME280;23035;50.032;21.978;2023-07-09T07:28:03;67861.34;;;25.42;49.51
37132;BME280;23035;50.032;21.978;2023-07-09T07:33:07;67819.66;;;25.06;50.16
37132;BME280;23035;50.032;21.978;2023-07-09T07:38:11;67790.38;;;24.78;51.09
37132;BME280;23035;50.032;21.978;2023-07-09T07:43:16;67734.00;;;24.25;53.43
37132;BME280;23035;50.032;21.978;2023-07-09T07:48:20;67808.22;;;24.93;52.58
37132;BME280;23035;50.032;21.978;2023-07-09T07:53:24;67780.63;;;24.69;51.29
37132;BME280;23035;50.032;21.978;2023-07-09T07:58:32;67731.81;;;24.21;54.37
37132;BME280;23035;50.032;21.978;2023-07-09T08:03:36;67761.09;;;24.48;54.12
37132;BME280;23035;50.032;21.978;2023-07-09T08:08:41;67832.59;;;25.15;52.90
37132;BME280;23035;50.032;21.978;2023-07-09T08:13:47;67755.22;;;24.48;54.05
37132;BME280;23035;50.032;21.978;2023-07-09T08:18:51;67772.47;;;24.59;54.50
37132;BME280;23035;50.032;21.978;2023-07-09T08:23:55;67847.25;;;25.29;52.83
37132;BME280;23035;50.032;21.978;2023-07-09T08:29:00;67798.03;;;24.88;55.76
37132;BME280;23035;50.032;21.978;2023-07-09T08:34:05;67831.56;;;25.17;54.54
37132;BME280;23035;50.032;21.978;2023-07-09T08:39:11;67848.88;;;25.31;54.26
37132;BME280;23035;50.032;21.978;2023-07-09T08:44:32;67921.09;;;26.03;54.02
37132;BME280;23035;50.032;21.978;2023-07-09T08:49:45;67951.41;;;26.29;51.37
37132;BME280;23035;50.032;21.978;2023-07-09T08:54:52;67924.84;;;26.05;51.13
37132;BME280;23035;50.032;21.978;2023-07-09T09:00:02;67858.63;;;25.40;52.12
37132;BME280;23035;50.032;21.978;2023-07-09T09:05:11;68070.81;;;27.41;47.46
37132;BME280;23035;50.032;21.978;2023-07-09T09:10:23;67941.06;;;26.17;47.29
37132;BME280;23035;50.032;21.978;2023-07-09T09:15:32;68055.06;;;27.27;46.28
37132;BME280;23035;50.032;21.978;2023-07-09T09:20:36;67973.63;;;26.48;45.17
37132;BME280;23035;50.032;21.978;2023-07-09T09:25:42;67974.22;;;26.51;46.95
37132;BME280;23035;50.032;21.978;2023-07-09T09:30:52;68036.03;;;27.06;46.37
37132;BME280;23035;50.032;21.978;2023-07-09T09:36:01;67990.59;;;26.71;46.09
37132;BME280;23035;50.032;21.978;2023-07-09T09:41:13;68057.38;;;27.36;46.09
37132;BME280;23035;50.032;21.978;2023-07-09T09:46:20;68135.41;;;28.02;42.31
37132;BME280;23035;50.032;21.978;2023-07-09T09:51:26;68082.81;;;27.55;44.13
37132;BME280;23035;50.032;21.978;2023-07-09T09:56:33;68197.94;;;28.63;41.84
37132;BME280;23035;50.032;21.978;2023-07-09T10:01:40;68106.16;;;27.77;41.12
37132;BME280;23035;50.032;21.978;2023-07-09T10:06:46;68140.84;;;28.07;40.43
37132;BME280;23035;50.032;21.978;2023-07-09T10:11:58;68265.31;;;29.26;39.30
37132;BME280;23035;50.032;21.978;2023-07-09T10:17:15;68363.09;;;30.13;38.61
37132;BME280;23035;50.032;21.978;2023-07-09T10:22:38;68277.25;;;29.37;35.88
37132;BME280;23035;50.032;21.978;2023-07-09T10:27:57;68232.09;;;28.90;38.96
37132;BME280;23035;50.032;21.978;2023-07-09T10:33:10;68298.53;;;29.60;37.48
37132;BME280;23035;50.032;21.978;2023-07-09T10:38:22;68267.94;;;29.24;35.65
37132;BME280;23035;50.032;21.978;2023-07-09T10:43:36;68190.84;;;28.54;37.57
37132;BME280;23035;50.032;21.978;2023-07-09T10:48:45;68203.28;;;28.63;38.52
37132;BME280;23035;50.032;21.978;2023-07-09T10:53:55;68244.09;;;29.04;35.67
37132;BME280;23035;50.032;21.978;2023-07-09T10:59:04;68213.13;;;28.77;36.44
37132;BME280;23035;50.032;21.978;2023-07-09T11:04:21;68142.53;;;28.11;38.65
37132;BME280;23035;50.032;21.978;2023-07-09T11:09:31;68189.22;;;28.52;39.00
37132;BME280;23035;50.032;21.978;2023-07-09T11:14:40;68215.31;;;28.79;37.90
37132;BME280;23035;50.032;21.978;2023-07-09T11:19:54;68200.06;;;28.63;37.73
37132;BME280;23035;50.032;21.978;2023-07-09T11:25:07;68194.72;;;28.63;37.24
37132;BME280;23035;50.032;21.978;2023-07-09T11:30:19;68157.63;;;28.20;38.86
37132;BME280;23035;50.032;21.978;2023-07-09T11:35:27;68315.22;;;29.68;37.41
37132;BME280;23035;50.032;21.978;2023-07-09T11:40:31;68540.50;;;31.81;33.42
37132;BME280;23035;50.032;21.978;2023-07-09T11:45:35;68541.59;;;31.85;32.53
37132;BME280;23035;50.032;21.978;2023-07-09T11:50:44;68646.06;;;32.77;31.40
37132;BME280;23035;50.032;21.978;2023-07-09T11:55:49;68639.06;;;32.76;31.41
37132;BME280;23035;50.032;21.978;2023-07-09T12:01:14;68487.69;;;31.32;34.49
37132;BME280;23035;50.032;21.978;2023-07-09T12:06:22;68567.16;;;32.06;34.37
37132;BME280;23035;50.032;21.978;2023-07-09T12:11:29;68564.41;;;32.01;31.10
37132;BME280;23035;50.032;21.978;2023-07-09T12:16:36;68594.94;;;32.32;30.60
37132;BME280;23035;50.032;21.978;2023-07-09T12:21:46;68640.69;;;32.77;29.33
37132;BME280;23035;50.032;21.978;2023-07-09T12:26:52;68728.91;;;33.57;29.43
37132;BME280;23035;50.032;21.978;2023-07-09T12:31:58;68559.03;;;32.01;30.92
37132;BME280;23035;50.032;21.978;2023-07-09T12:37:03;68516.03;;;31.61;31.44
37132;BME280;23035;50.032;21.978;2023-07-09T12:42:15;68294.63;;;29.51;33.19
37132;BME280;23035;50.032;21.978;2023-07-09T12:47:23;68430.06;;;30.80;30.91
37132;BME280;23035;50.032;21.978;2023-07-09T12:52:28;68516.56;;;31.61;30.01
37132;BME280;23035;50.032;21.978;2023-07-09T12:57:32;68607.97;;;32.42;29.79
37132;BME280;23035;50.032;21.978;2023-07-09T13:02:38;68659.25;;;32.97;29.80
37132;BME280;23035;50.032;21.978;2023-07-09T13:07:46;68640.06;;;32.72;29.10
37132;BME280;23035;50.032;21.978;2023-07-09T13:12:52;68907.16;;;35.26;25.96
37132;BME280;23035;50.032;21.978;2023-07-09T13:18:00;68857.03;;;34.82;27.41
37132;BME280;23035;50.032;21.978;2023-07-09T13:23:09;68451.28;;;31.00;30.92
37132;BME280;23035;50.032;21.978;2023-07-09T13:28:18;68280.47;;;29.38;31.87
37132;BME280;23035;50.032;21.978;2023-07-09T13:33:24;68239.78;;;29.02;33.70
37132;BME280;23035;50.032;21.978;2023-07-09T13:38:28;68190.28;;;28.53;34.82
37132;BME280;23035;50.032;21.978;2023-07-09T13:43:35;68266.91;;;29.25;34.69
37132;BME280;23035;50.032;21.978;2023-07-09T13:48:42;68393.53;;;30.41;32.35
37132;BME280;23035;50.032;21.978;2023-07-09T13:53:48;68543.81;;;31.87;30.56
37132;BME280;23035;50.032;21.978;2023-07-09T13:58:52;68290.25;;;29.47;33.30
37132;BME280;23035;50.032;21.978;2023-07-09T14:03:57;68226.69;;;28.88;34.84
37132;BME280;23035;50.032;21.978;2023-07-09T14:09:02;68366.34;;;30.16;33.56
37132;BME280;23035;50.032;21.978;2023-07-09T14:14:14;68307.66;;;29.61;34.34
37132;BME280;23035;50.032;21.978;2023-07-09T14:19:23;68268.03;;;29.29;34.39
37132;BME280;23035;50.032;21.978;2023-07-09T14:24:28;68175.19;;;28.44;36.74
37132;BME280;23035;50.032;21.978;2023-07-09T14:29:32;68389.78;;;30.40;34.95
37132;BME280;23035;50.032;21.978;2023-07-09T14:34:38;68554.59;;;31.92;31.38
37132;BME280;23035;50.032;21.978;2023-07-09T14:39:42;68730.03;;;33.61;28.78
37132;BME280;23035;50.032;21.978;2023-07-09T14:44:47;68520.34;;;31.62;31.26
37132;BME280;23035;50.032;21.978;2023-07-09T14:49:53;68820.50;;;34.45;28.13
37132;BME280;23035;50.032;21.978;2023-07-09T14:54:57;68599.31;;;32.39;29.00
37132;BME280;23035;50.032;21.978;2023-07-09T15:00:01;68736.50;;;33.62;27.74
37132;BME280;23035;50.032;21.978;2023-07-09T15:05:14;68648.81;;;32.82;28.08
37132;BME280;23035;50.032;21.978;2023-07-09T15:10:22;68636.31;;;32.73;27.87
37132;BME280;23035;50.032;21.978;2023-07-09T15:15:29;68561.78;;;32.06;28.59
37132;BME280;23035;50.032;21.978;2023-07-09T15:20:36;68339.16;;;29.90;31.48
37132;BME280;23035;50.032;21.978;2023-07-09T15:25:40;68234.84;;;28.95;32.41
37132;BME280;23035;50.032;21.978;2023-07-09T15:30:44;68142.53;;;28.11;33.27
37132;BME280;23035;50.032;21.978;2023-07-09T15:35:49;68462.06;;;31.05;29.57
37132;BME280;23035;50.032;21.978;2023-07-09T15:40:54;68483.84;;;31.26;29.96
37132;BME280;23035;50.032;21.978;2023-07-09T15:45:58;68419.13;;;30.68;31.06
37132;BME280;23035;50.032;21.978;2023-07-09T15:51:05;68249.50;;;29.09;33.04
37132;BME280;23035;50.032;21.978;2023-07-09T15:56:13;68371.88;;;30.26;32.52
37132;BME280;23035;50.032;21.978;2023-07-09T16:01:19;68208.75;;;28.71;34.56
37132;BME280;23035;50.032;21.978;2023-07-09T16:06:28;68159.81;;;28.22;34.12
37132;BME280;23035;50.032;21.978;2023-07-09T16:11:32;68290.31;;;29.50;33.40
37132;BME280;23035;50.032;21.978;2023-07-09T16:16:38;68309.84;;;29.65;32.81
37132;BME280;23035;50.032;21.978;2023-07-09T16:21:44;68300.03;;;29.54;33.73
37132;BME280;23035;50.032;21.978;2023-07-09T16:26:48;68163.72;;;28.31;35.39
37132;BME280;23035;50.032;21.978;2023-07-09T16:31:53;68093.00;;;27.60;36.67
37132;BME280;23035;50.032;21.978;2023-07-09T16:36:59;68102.38;;;27.74;36.39
37132;BME280;23035;50.032;21.978;2023-07-09T16:42:08;68300.56;;;29.54;33.67
37132;BME280;23035;50.032;21.978;2023-07-09T16:47:16;68108.28;;;27.77;36.45
37132;BME280;23035;50.032;21.978;2023-07-09T16:52:23;68139.69;;;28.01;36.83
37132;BME280;23035;50.032;21.978;2023-07-09T16:57:31;68282.09;;;29.39;35.64
37132;BME280;23035;50.032;21.978;2023-07-09T17:02:35;68156.00;;;28.19;37.05
37132;BME280;23035;50.032;21.978;2023-07-09T17:07:41;68127.84;;;27.95;37.66
37132;BME280;23035;50.032;21.978;2023-07-09T17:12:48;68082.19;;;27.52;37.99
37132;BME280;23035;50.032;21.978;2023-07-09T17:17:57;68050.72;;;27.23;38.72
37132;BME280;23035;50.032;21.978;2023-07-09T17:23:07;68104.44;;;27.70;38.18
37132;BME280;23035;50.032;21.978;2023-07-09T17:28:16;68036.03;;;27.06;38.42
37132;BME280;23035;50.032;21.978;2023-07-09T17:33:20;67989.34;;;26.63;39.58
37132;BME280;23035;50.032;21.978;2023-07-09T17:38:32;67958.94;;;26.34;40.45
37132;BME280;23035;50.032;21.978;2023-07-09T17:43:36;67935.69;;;26.15;40.31
37132;BME280;23035;50.032;21.978;2023-07-09T17:48:41;67932.34;;;26.07;40.82
37132;BME280;23035;50.032;21.978;2023-07-09T17:53:47;67893.88;;;25.73;41.54
37132;BME280;23035;50.032;21.978;2023-07-09T17:58:51;67908.03;;;25.89;41.51
37132;BME280;23035;50.032;21.978;2023-07-09T18:03:55;67898.81;;;25.80;42.32
37132;BME280;23035;50.032;21.978;2023-07-09T18:09:00;67900.44;;;25.82;42.42
37132;BME280;23035;50.032;21.978;2023-07-09T18:14:15;67850.06;;;25.37;44.25
37132;BME280;23035;50.032;21.978;2023-07-09T18:19:24;67850.13;;;25.39;43.40
37132;BME280;23035;50.032;21.978;2023-07-09T18:24:30;67818.56;;;25.05;43.18
37132;BME280;23035;50.032;21.978;2023-07-09T18:29:34;67813.69;;;25.00;43.38
37132;BME280;23035;50.032;21.978;2023-07-09T18:34:40;67802.84;;;24.90;44.49
37132;BME280;23035;50.032;21.978;2023-07-09T18:39:45;67748.56;;;24.34;45.36
37132;BME280;23035;50.032;21.978;2023-07-09T18:44:49;67758.31;;;24.43;46.14
37132;BME280;23035;50.032;21.978;2023-07-09T18:49:53;67752.47;;;24.43;46.66
37132;BME280;23035;50.032;21.978;2023-07-09T18:54:59;67758.44;;;24.48;46.76
37132;BME280;23035;50.032;21.978;2023-07-09T19:00:03;67732.94;;;24.24;47.60
37132;BME280;23035;50.032;21.978;2023-07-09T19:05:11;67705.78;;;23.96;47.73
37132;BME280;23035;50.032;21.978;2023-07-09T19:10:20;67723.69;;;24.13;48.21
37132;BME280;23035;50.032;21.978;2023-07-09T19:15:26;67683.72;;;23.81;48.30
37132;BME280;23035;50.032;21.978;2023-07-09T19:20:32;67641.94;;;23.39;50.69
37132;BME280;23035;50.032;21.978;2023-07-09T19:25:38;67648.41;;;23.42;54.03
37132;BME280;23035;50.032;21.978;2023-07-09T19:30:45;67608.88;;;23.05;56.32
37132;BME280;23035;50.032;21.978;2023-07-09T19:35:49;67588.91;;;22.89;60.61
37132;BME280;23035;50.032;21.978;2023-07-09T19:40:55;67546.56;;;22.44;62.61
37132;BME280;23035;50.032;21.978;2023-07-09T19:45:59;67497.97;;;22.03;62.98
37132;BME280;23035;50.032;21.978;2023-07-09T19:51:07;67494.69;;;21.98;65.99
37132;BME280;23035;50.032;21.978;2023-07-09T19:56:13;67508.22;;;22.11;63.19
37132;BME280;23035;50.032;21.978;2023-07-09T20:01:18;67464.28;;;21.64;63.98
37132;BME280;23035;50.032;21.978;2023-07-09T20:06:22;67505.97;;;22.06;63.80
37132;BME280;23035;50.032;21.978;2023-07-09T20:11:27;67498.94;;;21.99;59.89
37132;BME280;23035;50.032;21.978;2023-07-09T20:16:31;67493.66;;;21.99;61.01
37132;BME280;23035;50.032;21.978;2023-07-09T20:21:38;67490.34;;;21.94;59.79
37132;BME280;23035;50.032;21.978;2023-07-09T20:26:44;67504.97;;;22.08;61.22
37132;BME280;23035;50.032;21.978;2023-07-09T20:31:49;67504.44;;;22.07;60.38
37132;BME280;23035;50.032;21.978;2023-07-09T20:36:53;67476.91;;;21.84;62.25
37132;BME280;23035;50.032;21.978;2023-07-09T20:41:59;67482.78;;;21.87;63.97
37132;BME280;23035;50.032;21.978;2023-07-09T20:47:13;67434.19;;;21.43;65.00
37132;BME280;23035;50.032;21.978;2023-07-09T20:52:18;67410.84;;;21.19;65.37
37132;BME280;23035;50.032;21.978;2023-07-09T20:57:40;67415.69;;;21.24;64.29
37132;BME280;23035;50.032;21.978;2023-07-09T21:02:57;67396.13;;;21.00;66.61
37132;BME280;23035;50.032;21.978;2023-07-09T21:08:15;67429.84;;;21.39;67.40
37132;BME280;23035;50.032;21.978;2023-07-09T21:13:24;67388.19;;;21.00;65.44
37132;BME280;23035;50.032;21.978;2023-07-09T21:18:43;67417.81;;;21.23;67.42
37132;BME280;23035;50.032;21.978;2023-07-09T21:23:51;67322.22;;;20.36;73.62
37132;BME280;23035;50.032;21.978;2023-07-09T21:28:57;67298.91;;;20.11;74.67
37132;BME280;23035;50.032;21.978;2023-07-09T21:34:10;67312.00;;;20.28;78.29
37132;BME280;23035;50.032;21.978;2023-07-09T21:39:25;67180.16;;;19.02;87.39
37132;BME280;23035;50.032;21.978;2023-07-09T21:44:31;67147.63;;;18.66;91.10
37132;BME280;23035;50.032;21.978;2023-07-09T21:49:38;67161.22;;;18.81;94.15
37132;BME280;23035;50.032;21.978;2023-07-09T21:54:43;67103.53;;;18.29;97.56
37132;BME280;23035;50.032;21.978;2023-07-09T21:59:55;67065.75;;;17.94;100.00
37132;BME280;23035;50.032;21.978;2023-07-09T22:05:01;67159.66;;;18.82;100.00
37132;BME280;23035;50.032;21.978;2023-07-09T22:10:10;67124.47;;;18.47;100.00
37132;BME280;23035;50.032;21.978;2023-07-09T22:15:19;67081.72;;;18.01;100.00
37132;BME280;23035;50.032;21.978;2023-07-09T22:20:26;67035.59;;;17.68;100.00
37132;BME280;23035;50.032;21.978;2023-07-09T22:25:31;67175.91;;;19.00;100.00
37132;BME280;23035;50.032;21.978;2023-07-09T22:30:36;67047.88;;;17.74;100.00
37132;BME280;23035;50.032;21.978;2023-07-09T22:35:40;67005.81;;;17.35;100.00
37132;BME280;23035;50.032;21.978;2023-07-09T22:40:45;67036.53;;;17.64;100.00
37132;BME280;23035;50.032;21.978;2023-07-09T22:45:50;67067.38;;;17.95;100.00
37132;BME280;23035;50.032;21.978;2023-07-09T22:50:55;66972.00;;;17.08;100.00
37132;BME280;23035;50.032;21.978;2023-07-09T22:55:59;67010.81;;;17.44;100.00
37132;BME280;23035;50.032;21.978;2023-07-09T23:01:13;67084.63;;;18.12;100.00
37132;BME280;23035;50.032;21.978;2023-07-09T23:06:20;67006.34;;;17.35;100.00
37132;BME280;23035;50.032;21.978;2023-07-09T23:11:27;66902.38;;;16.40;100.00
37132;BME280;23035;50.032;21.978;2023-07-09T23:16:33;66936.44;;;16.74;100.00
37132;BME280;23035;50.032;21.978;2023-07-09T23:21:37;66912.63;;;16.49;100.00
37132;BME280;23035;50.032;21.978;2023-07-09T23:26:44;66900.28;;;16.40;100.00
37132;BME280;23035;50.032;21.978;2023-07-09T23:31:50;66939.06;;;16.74;100.00
37132;BME280;23035;50.032;21.978;2023-07-09T23:36:54;66933.75;;;16.72;100.00
37132;BME280;23035;50.032;21.978;2023-07-09T23:41:58;66957.44;;;16.94;100.00
37132;BME280;23035;50.032;21.978;2023-07-09T23:47:08;67010.25;;;17.44;100.00
37132;BME280;23035;50.032;21.978;2023-07-09T23:52:14;66946.13;;;16.83;100.00
37132;BME280;23035;50.032;21.978;2023-07-09T23:57:18;66915.41;;;16.54;100.00
